sensor_id;sensor_type;location;lat;lon;timestamp;P1;durP1;ratioP1;P2;durP2;ratioP2
64387;SDS011;50709;52.648;4.764;2023-08-06T00:01:32;10.20;;;5.90;;
64387;SDS011;50709;52.648;4.764;2023-08-06T00:03:57;10.48;;;6.00;;
64387;SDS011;50709;52.648;4.764;2023-08-06T00:06:25;7.97;;;5.55;;
64387;SDS011;50709;52.648;4.764;2023-08-06T00:08:50;8.68;;;5.68;;
64387;SDS011;50709;52.648;4.764;2023-08-06T00:11:16;10.23;;;6.22;;
64387;SDS011;50709;52.648;4.764;2023-08-06T00:13:41;9.30;;;6.10;;
64387;SDS011;50709;52.648;4.764;2023-08-06T00:16:09;8.98;;;5.88;;
64387;SDS011;50709;52.648;4.764;2023-08-06T00:18:38;8.15;;;5.35;;
64387;SDS011;50709;52.648;4.764;2023-08-06T00:21:05;6.55;;;4.70;;
64387;SDS011;50709;52.648;4.764;2023-08-06T00:23:30;8.38;;;5.80;;
64387;SDS011;50709;52.648;4.764;2023-08-06T00:25:56;10.25;;;5.75;;
64387;SDS011;50709;52.648;4.764;2023-08-06T00:28:21;8.73;;;6.07;;
64387;SDS011;50709;52.648;4.764;2023-08-06T00:30:52;8.30;;;5.88;;
64387;SDS011;50709;52.648;4.764;2023-08-06T00:33:21;8.38;;;5.60;;
64387;SDS011;50709;52.648;4.764;2023-08-06T00:35:50;9.43;;;6.35;;
64387;SDS011;50709;52.648;4.764;2023-08-06T00:38:16;9.40;;;5.75;;
64387;SDS011;50709;52.648;4.764;2023-08-06T00:40:41;8.32;;;5.10;;
64387;SDS011;50709;52.648;4.764;2023-08-06T00:43:07;10.15;;;6.57;;
64387;SDS011;50709;52.648;4.764;2023-08-06T00:45:33;10.30;;;6.45;;
64387;SDS011;50709;52.648;4.764;2023-08-06T00:48:00;8.82;;;5.93;;
64387;SDS011;50709;52.648;4.764;2023-08-06T00:50:28;8.95;;;5.28;;
64387;SDS011;50709;52.648;4.764;2023-08-06T00:52:53;10.07;;;6.53;;
64387;SDS011;50709;52.648;4.764;2023-08-06T00:55:19;9.45;;;5.78;;
64387;SDS011;50709;52.648;4.764;2023-08-06T00:57:45;11.85;;;6.32;;
64387;SDS011;50709;52.648;4.764;2023-08-06T01:00:11;11.32;;;7.25;;
64387;SDS011;50709;52.648;4.764;2023-08-06T01:02:37;11.35;;;6.20;;
64387;SDS011;50709;52.648;4.764;2023-08-06T01:05:03;8.93;;;6.18;;
64387;SDS011;50709;52.648;4.764;2023-08-06T01:10:10;9.05;;;6.28;;
64387;SDS011;50709;52.648;4.764;2023-08-06T01:15:43;8.73;;;5.65;;
64387;SDS011;50709;52.648;4.764;2023-08-06T01:18:12;9.20;;;5.97;;
64387;SDS011;50709;52.648;4.764;2023-08-06T01:20:38;10.48;;;6.07;;
64387;SDS011;50709;52.648;4.764;2023-08-06T01:23:03;9.07;;;6.05;;
64387;SDS011;50709;52.648;4.764;2023-08-06T01:25:33;8.82;;;5.70;;
64387;SDS011;50709;52.648;4.764;2023-08-06T01:28:09;9.40;;;6.05;;
64387;SDS011;50709;52.648;4.764;2023-08-06T01:33:26;9.30;;;5.43;;
64387;SDS011;50709;52.648;4.764;2023-08-06T01:35:55;7.25;;;5.25;;
64387;SDS011;50709;52.648;4.764;2023-08-06T01:38:23;7.18;;;4.97;;
64387;SDS011;50709;52.648;4.764;2023-08-06T01:40:49;8.25;;;5.38;;
64387;SDS011;50709;52.648;4.764;2023-08-06T01:43:15;6.15;;;4.68;;
64387;SDS011;50709;52.648;4.764;2023-08-06T01:45:41;6.95;;;4.60;;
64387;SDS011;50709;52.648;4.764;2023-08-06T01:48:06;9.07;;;4.55;;
64387;SDS011;50709;52.648;4.764;2023-08-06T01:50:32;6.28;;;4.30;;
64387;SDS011;50709;52.648;4.764;2023-08-06T01:52:57;8.85;;;4.82;;
64387;SDS011;50709;52.648;4.764;2023-08-06T01:55:23;8.48;;;4.30;;
64387;SDS011;50709;52.648;4.764;2023-08-06T01:57:49;5.07;;;3.83;;
64387;SDS011;50709;52.648;4.764;2023-08-06T02:00:14;6.25;;;3.83;;
64387;SDS011;50709;52.648;4.764;2023-08-06T02:02:39;5.55;;;3.50;;
64387;SDS011;50709;52.648;4.764;2023-08-06T02:05:25;5.22;;;3.65;;
64387;SDS011;50709;52.648;4.764;2023-08-06T02:07:51;4.72;;;3.38;;
64387;SDS011;50709;52.648;4.764;2023-08-06T02:10:16;6.10;;;3.40;;
64387;SDS011;50709;52.648;4.764;2023-08-06T02:12:42;5.97;;;3.72;;
64387;SDS011;50709;52.648;4.764;2023-08-06T02:15:07;8.80;;;3.50;;
64387;SDS011;50709;52.648;4.764;2023-08-06T02:17:33;6.07;;;3.40;;
64387;SDS011;50709;52.648;4.764;2023-08-06T02:19:58;6.55;;;3.55;;
64387;SDS011;50709;52.648;4.764;2023-08-06T02:22:24;5.95;;;3.60;;
64387;SDS011;50709;52.648;4.764;2023-08-06T02:24:49;5.85;;;3.67;;
64387;SDS011;50709;52.648;4.764;2023-08-06T02:27:15;5.13;;;3.53;;
64387;SDS011;50709;52.648;4.764;2023-08-06T02:29:40;5.07;;;3.50;;
64387;SDS011;50709;52.648;4.764;2023-08-06T02:32:06;6.03;;;3.42;;
64387;SDS011;50709;52.648;4.764;2023-08-06T02:34:32;5.50;;;3.35;;
64387;SDS011;50709;52.648;4.764;2023-08-06T02:36:58;5.38;;;3.33;;
64387;SDS011;50709;52.648;4.764;2023-08-06T02:39:23;8.23;;;3.63;;
64387;SDS011;50709;52.648;4.764;2023-08-06T02:41:49;5.72;;;3.70;;
64387;SDS011;50709;52.648;4.764;2023-08-06T02:44:14;6.93;;;3.35;;
64387;SDS011;50709;52.648;4.764;2023-08-06T02:46:39;5.18;;;3.53;;
64387;SDS011;50709;52.648;4.764;2023-08-06T02:49:06;4.25;;;3.20;;
64387;SDS011;50709;52.648;4.764;2023-08-06T02:51:31;5.03;;;3.00;;
64387;SDS011;50709;52.648;4.764;2023-08-06T02:53:57;7.95;;;3.30;;
64387;SDS011;50709;52.648;4.764;2023-08-06T02:56:22;4.53;;;3.10;;
64387;SDS011;50709;52.648;4.764;2023-08-06T02:58:47;6.28;;;3.45;;
64387;SDS011;50709;52.648;4.764;2023-08-06T03:01:13;3.90;;;2.90;;
64387;SDS011;50709;52.648;4.764;2023-08-06T03:03:39;4.90;;;2.72;;
64387;SDS011;50709;52.648;4.764;2023-08-06T03:06:04;5.18;;;3.00;;
64387;SDS011;50709;52.648;4.764;2023-08-06T03:08:30;4.55;;;2.90;;
64387;SDS011;50709;52.648;4.764;2023-08-06T03:10:55;6.32;;;3.08;;
64387;SDS011;50709;52.648;4.764;2023-08-06T03:13:21;4.57;;;2.70;;
64387;SDS011;50709;52.648;4.764;2023-08-06T03:15:53;5.10;;;3.30;;
64387;SDS011;50709;52.648;4.764;2023-08-06T03:18:22;6.18;;;3.60;;
64387;SDS011;50709;52.648;4.764;2023-08-06T03:20:48;3.95;;;2.72;;
64387;SDS011;50709;52.648;4.764;2023-08-06T03:23:13;4.63;;;3.03;;
64387;SDS011;50709;52.648;4.764;2023-08-06T03:25:39;4.47;;;3.13;;
64387;SDS011;50709;52.648;4.764;2023-08-06T03:28:04;5.47;;;3.20;;
64387;SDS011;50709;52.648;4.764;2023-08-06T03:30:29;4.85;;;3.20;;
64387;SDS011;50709;52.648;4.764;2023-08-06T03:32:55;5.75;;;3.67;;
64387;SDS011;50709;52.648;4.764;2023-08-06T03:35:20;5.80;;;3.63;;
64387;SDS011;50709;52.648;4.764;2023-08-06T03:37:46;6.63;;;4.53;;
64387;SDS011;50709;52.648;4.764;2023-08-06T03:40:31;5.93;;;4.03;;
64387;SDS011;50709;52.648;4.764;2023-08-06T03:42:57;7.90;;;5.22;;
64387;SDS011;50709;52.648;4.764;2023-08-06T03:45:22;6.20;;;4.10;;
64387;SDS011;50709;52.648;4.764;2023-08-06T03:47:47;7.57;;;4.53;;
64387;SDS011;50709;52.648;4.764;2023-08-06T03:50:13;7.85;;;4.60;;
64387;SDS011;50709;52.648;4.764;2023-08-06T03:52:38;7.15;;;4.45;;
64387;SDS011;50709;52.648;4.764;2023-08-06T03:55:04;6.15;;;4.53;;
64387;SDS011;50709;52.648;4.764;2023-08-06T03:57:29;7.95;;;5.03;;
64387;SDS011;50709;52.648;4.764;2023-08-06T03:59:56;7.25;;;4.03;;
64387;SDS011;50709;52.648;4.764;2023-08-06T04:02:22;6.60;;;4.20;;
64387;SDS011;50709;52.648;4.764;2023-08-06T04:04:47;7.10;;;4.28;;
64387;SDS011;50709;52.648;4.764;2023-08-06T04:07:14;6.93;;;4.50;;
64387;SDS011;50709;52.648;4.764;2023-08-06T04:09:56;6.07;;;4.70;;
64387;SDS011;50709;52.648;4.764;2023-08-06T04:12:23;8.07;;;5.43;;
64387;SDS011;50709;52.648;4.764;2023-08-06T04:14:50;7.47;;;4.85;;
64387;SDS011;50709;52.648;4.764;2023-08-06T04:17:17;7.45;;;5.15;;
64387;SDS011;50709;52.648;4.764;2023-08-06T04:19:51;8.05;;;5.07;;
64387;SDS011;50709;52.648;4.764;2023-08-06T04:22:18;7.60;;;5.13;;
64387;SDS011;50709;52.648;4.764;2023-08-06T04:24:44;8.55;;;6.07;;
64387;SDS011;50709;52.648;4.764;2023-08-06T04:27:10;8.48;;;5.82;;
64387;SDS011;50709;52.648;4.764;2023-08-06T04:29:36;8.63;;;5.78;;
64387;SDS011;50709;52.648;4.764;2023-08-06T04:32:03;9.75;;;6.53;;
64387;SDS011;50709;52.648;4.764;2023-08-06T04:34:30;9.13;;;6.82;;
64387;SDS011;50709;52.648;4.764;2023-08-06T04:36:55;9.57;;;6.60;;
64387;SDS011;50709;52.648;4.764;2023-08-06T04:39:21;11.57;;;7.88;;
64387;SDS011;50709;52.648;4.764;2023-08-06T04:41:46;12.00;;;7.72;;
64387;SDS011;50709;52.648;4.764;2023-08-06T04:44:12;10.70;;;7.32;;
64387;SDS011;50709;52.648;4.764;2023-08-06T04:46:37;10.68;;;7.35;;
64387;SDS011;50709;52.648;4.764;2023-08-06T04:49:03;12.98;;;8.18;;
64387;SDS011;50709;52.648;4.764;2023-08-06T04:51:28;9.73;;;6.28;;
64387;SDS011;50709;52.648;4.764;2023-08-06T04:53:56;10.52;;;7.25;;
64387;SDS011;50709;52.648;4.764;2023-08-06T04:56:22;13.38;;;8.40;;
64387;SDS011;50709;52.648;4.764;2023-08-06T04:58:48;14.25;;;8.95;;
64387;SDS011;50709;52.648;4.764;2023-08-06T05:01:13;12.27;;;8.15;;
64387;SDS011;50709;52.648;4.764;2023-08-06T05:03:38;11.35;;;7.50;;
64387;SDS011;50709;52.648;4.764;2023-08-06T05:06:04;11.05;;;6.85;;
64387;SDS011;50709;52.648;4.764;2023-08-06T05:08:31;13.20;;;8.60;;
64387;SDS011;50709;52.648;4.764;2023-08-06T05:10:56;11.25;;;7.28;;
64387;SDS011;50709;52.648;4.764;2023-08-06T05:13:22;10.32;;;6.38;;
64387;SDS011;50709;52.648;4.764;2023-08-06T05:15:47;11.20;;;6.95;;
64387;SDS011;50709;52.648;4.764;2023-08-06T05:18:13;9.85;;;5.80;;
64387;SDS011;50709;52.648;4.764;2023-08-06T05:20:39;9.95;;;6.55;;
64387;SDS011;50709;52.648;4.764;2023-08-06T05:23:06;10.40;;;6.72;;
64387;SDS011;50709;52.648;4.764;2023-08-06T05:25:31;9.95;;;7.00;;
64387;SDS011;50709;52.648;4.764;2023-08-06T05:27:57;11.25;;;6.97;;
64387;SDS011;50709;52.648;4.764;2023-08-06T05:30:22;10.10;;;6.72;;
64387;SDS011;50709;52.648;4.764;2023-08-06T05:32:48;11.15;;;6.15;;
64387;SDS011;50709;52.648;4.764;2023-08-06T05:35:13;9.13;;;6.30;;
64387;SDS011;50709;52.648;4.764;2023-08-06T05:37:39;9.90;;;7.07;;
64387;SDS011;50709;52.648;4.764;2023-08-06T05:40:04;8.60;;;5.82;;
64387;SDS011;50709;52.648;4.764;2023-08-06T05:42:30;10.00;;;6.15;;
64387;SDS011;50709;52.648;4.764;2023-08-06T05:44:56;9.15;;;6.30;;
64387;SDS011;50709;52.648;4.764;2023-08-06T05:47:21;9.18;;;6.38;;
64387;SDS011;50709;52.648;4.764;2023-08-06T05:49:47;9.18;;;6.80;;
64387;SDS011;50709;52.648;4.764;2023-08-06T05:52:12;8.70;;;5.78;;
64387;SDS011;50709;52.648;4.764;2023-08-06T05:54:38;7.95;;;5.82;;
64387;SDS011;50709;52.648;4.764;2023-08-06T05:57:05;7.88;;;5.70;;
64387;SDS011;50709;52.648;4.764;2023-08-06T05:59:33;8.50;;;5.85;;
64387;SDS011;50709;52.648;4.764;2023-08-06T06:01:59;8.77;;;5.90;;
64387;SDS011;50709;52.648;4.764;2023-08-06T06:04:25;8.50;;;5.93;;
64387;SDS011;50709;52.648;4.764;2023-08-06T06:06:50;9.35;;;5.75;;
64387;SDS011;50709;52.648;4.764;2023-08-06T06:09:16;7.72;;;5.35;;
64387;SDS011;50709;52.648;4.764;2023-08-06T06:11:41;8.93;;;5.85;;
64387;SDS011;50709;52.648;4.764;2023-08-06T06:14:06;8.25;;;5.63;;
64387;SDS011;50709;52.648;4.764;2023-08-06T06:16:32;8.50;;;5.57;;
64387;SDS011;50709;52.648;4.764;2023-08-06T06:18:59;8.38;;;5.82;;
64387;SDS011;50709;52.648;4.764;2023-08-06T06:21:24;8.82;;;5.93;;
64387;SDS011;50709;52.648;4.764;2023-08-06T06:23:50;7.50;;;5.75;;
64387;SDS011;50709;52.648;4.764;2023-08-06T06:26:18;8.65;;;6.32;;
64387;SDS011;50709;52.648;4.764;2023-08-06T06:28:44;8.40;;;5.90;;
64387;SDS011;50709;52.648;4.764;2023-08-06T06:31:09;6.43;;;5.03;;
64387;SDS011;50709;52.648;4.764;2023-08-06T06:33:35;8.90;;;5.85;;
64387;SDS011;50709;52.648;4.764;2023-08-06T06:36:21;8.13;;;5.65;;
64387;SDS011;50709;52.648;4.764;2023-08-06T06:38:48;9.95;;;6.10;;
64387;SDS011;50709;52.648;4.764;2023-08-06T06:41:14;8.88;;;5.90;;
64387;SDS011;50709;52.648;4.764;2023-08-06T06:43:40;7.50;;;5.82;;
64387;SDS011;50709;52.648;4.764;2023-08-06T06:46:05;8.90;;;5.63;;
64387;SDS011;50709;52.648;4.764;2023-08-06T06:48:32;10.07;;;6.53;;
64387;SDS011;50709;52.648;4.764;2023-08-06T06:50:58;9.27;;;6.05;;
64387;SDS011;50709;52.648;4.764;2023-08-06T06:53:25;8.20;;;6.00;;
64387;SDS011;50709;52.648;4.764;2023-08-06T06:55:56;10.23;;;6.18;;
64387;SDS011;50709;52.648;4.764;2023-08-06T06:58:27;8.73;;;5.88;;
64387;SDS011;50709;52.648;4.764;2023-08-06T07:00:53;8.27;;;5.53;;
64387;SDS011;50709;52.648;4.764;2023-08-06T07:03:19;8.35;;;5.68;;
64387;SDS011;50709;52.648;4.764;2023-08-06T07:05:45;9.23;;;6.00;;
64387;SDS011;50709;52.648;4.764;2023-08-06T07:08:11;8.88;;;5.50;;
64387;SDS011;50709;52.648;4.764;2023-08-06T07:10:36;8.43;;;5.93;;
64387;SDS011;50709;52.648;4.764;2023-08-06T07:13:02;8.73;;;6.50;;
64387;SDS011;50709;52.648;4.764;2023-08-06T07:15:28;8.15;;;5.88;;
64387;SDS011;50709;52.648;4.764;2023-08-06T07:17:53;9.50;;;5.70;;
64387;SDS011;50709;52.648;4.764;2023-08-06T07:20:19;8.40;;;5.70;;
64387;SDS011;50709;52.648;4.764;2023-08-06T07:22:44;8.77;;;5.68;;
64387;SDS011;50709;52.648;4.764;2023-08-06T07:25:10;8.95;;;5.65;;
64387;SDS011;50709;52.648;4.764;2023-08-06T07:27:36;8.20;;;4.88;;
64387;SDS011;50709;52.648;4.764;2023-08-06T07:30:01;7.40;;;5.20;;
64387;SDS011;50709;52.648;4.764;2023-08-06T07:32:27;7.25;;;5.32;;
64387;SDS011;50709;52.648;4.764;2023-08-06T07:34:53;7.20;;;4.80;;
64387;SDS011;50709;52.648;4.764;2023-08-06T07:37:22;7.07;;;5.18;;
64387;SDS011;50709;52.648;4.764;2023-08-06T07:39:48;8.73;;;5.68;;
64387;SDS011;50709;52.648;4.764;2023-08-06T07:42:13;6.65;;;4.97;;
64387;SDS011;50709;52.648;4.764;2023-08-06T07:44:39;8.60;;;5.57;;
64387;SDS011;50709;52.648;4.764;2023-08-06T07:47:07;7.90;;;5.30;;
64387;SDS011;50709;52.648;4.764;2023-08-06T07:49:32;8.32;;;5.47;;
64387;SDS011;50709;52.648;4.764;2023-08-06T07:51:59;6.60;;;4.90;;
64387;SDS011;50709;52.648;4.764;2023-08-06T07:54:25;8.00;;;5.00;;
64387;SDS011;50709;52.648;4.764;2023-08-06T07:56:50;8.52;;;5.70;;
64387;SDS011;50709;52.648;4.764;2023-08-06T07:59:16;8.63;;;5.32;;
64387;SDS011;50709;52.648;4.764;2023-08-06T08:01:44;7.82;;;5.50;;
64387;SDS011;50709;52.648;4.764;2023-08-06T08:04:09;7.45;;;5.32;;
64387;SDS011;50709;52.648;4.764;2023-08-06T08:06:35;7.68;;;5.50;;
64387;SDS011;50709;52.648;4.764;2023-08-06T08:09:00;9.15;;;4.80;;
64387;SDS011;50709;52.648;4.764;2023-08-06T08:11:26;7.28;;;4.80;;
64387;SDS011;50709;52.648;4.764;2023-08-06T08:13:51;7.53;;;4.90;;
64387;SDS011;50709;52.648;4.764;2023-08-06T08:16:18;7.00;;;4.72;;
64387;SDS011;50709;52.648;4.764;2023-08-06T08:18:43;7.55;;;4.95;;
64387;SDS011;50709;52.648;4.764;2023-08-06T08:21:09;7.97;;;4.68;;
64387;SDS011;50709;52.648;4.764;2023-08-06T08:23:34;6.80;;;4.65;;
64387;SDS011;50709;52.648;4.764;2023-08-06T08:26:00;7.65;;;4.32;;
64387;SDS011;50709;52.648;4.764;2023-08-06T08:28:27;9.95;;;4.57;;
64387;SDS011;50709;52.648;4.764;2023-08-06T08:30:52;6.63;;;4.25;;
64387;SDS011;50709;52.648;4.764;2023-08-06T08:33:22;8.48;;;4.80;;
64387;SDS011;50709;52.648;4.764;2023-08-06T08:35:47;7.93;;;4.55;;
64387;SDS011;50709;52.648;4.764;2023-08-06T08:38:13;9.45;;;4.60;;
64387;SDS011;50709;52.648;4.764;2023-08-06T08:40:40;7.82;;;4.32;;
64387;SDS011;50709;52.648;4.764;2023-08-06T08:43:12;6.65;;;3.58;;
64387;SDS011;50709;52.648;4.764;2023-08-06T08:45:40;5.43;;;3.67;;
64387;SDS011;50709;52.648;4.764;2023-08-06T08:48:08;6.38;;;4.00;;
64387;SDS011;50709;52.648;4.764;2023-08-06T08:50:37;5.30;;;3.55;;
64387;SDS011;50709;52.648;4.764;2023-08-06T08:53:04;6.53;;;3.63;;
64387;SDS011;50709;52.648;4.764;2023-08-06T08:55:30;6.00;;;3.50;;
64387;SDS011;50709;52.648;4.764;2023-08-06T08:57:57;6.20;;;3.67;;
64387;SDS011;50709;52.648;4.764;2023-08-06T09:00:43;6.40;;;4.00;;
64387;SDS011;50709;52.648;4.764;2023-08-06T09:03:10;7.18;;;3.70;;
64387;SDS011;50709;52.648;4.764;2023-08-06T09:05:36;7.22;;;3.97;;
64387;SDS011;50709;52.648;4.764;2023-08-06T09:08:08;7.30;;;3.67;;
64387;SDS011;50709;52.648;4.764;2023-08-06T09:10:37;7.53;;;3.70;;
64387;SDS011;50709;52.648;4.764;2023-08-06T09:13:04;5.85;;;3.67;;
64387;SDS011;50709;52.648;4.764;2023-08-06T09:15:30;5.90;;;3.40;;
64387;SDS011;50709;52.648;4.764;2023-08-06T09:17:56;5.90;;;3.50;;
64387;SDS011;50709;52.648;4.764;2023-08-06T09:20:22;4.75;;;3.28;;
64387;SDS011;50709;52.648;4.764;2023-08-06T09:22:47;5.95;;;3.60;;
64387;SDS011;50709;52.648;4.764;2023-08-06T09:25:20;5.72;;;3.38;;
64387;SDS011;50709;52.648;4.764;2023-08-06T09:27:48;5.63;;;3.17;;
64387;SDS011;50709;52.648;4.764;2023-08-06T09:30:19;5.00;;;3.00;;
64387;SDS011;50709;52.648;4.764;2023-08-06T09:32:57;4.22;;;2.75;;
64387;SDS011;50709;52.648;4.764;2023-08-06T09:35:23;6.53;;;3.05;;
64387;SDS011;50709;52.648;4.764;2023-08-06T09:37:48;4.60;;;3.10;;
64387;SDS011;50709;52.648;4.764;2023-08-06T09:40:24;5.25;;;3.22;;
64387;SDS011;50709;52.648;4.764;2023-08-06T09:42:52;5.80;;;3.08;;
64387;SDS011;50709;52.648;4.764;2023-08-06T09:45:18;5.13;;;3.40;;
64387;SDS011;50709;52.648;4.764;2023-08-06T09:47:43;4.25;;;2.80;;
64387;SDS011;50709;52.648;4.764;2023-08-06T09:50:21;5.13;;;2.75;;
64387;SDS011;50709;52.648;4.764;2023-08-06T09:52:46;4.47;;;3.13;;
64387;SDS011;50709;52.648;4.764;2023-08-06T09:55:13;4.60;;;3.15;;
64387;SDS011;50709;52.648;4.764;2023-08-06T09:57:48;4.85;;;2.60;;
64387;SDS011;50709;52.648;4.764;2023-08-06T10:00:15;6.07;;;2.92;;
64387;SDS011;50709;52.648;4.764;2023-08-06T10:02:41;6.82;;;2.92;;
64387;SDS011;50709;52.648;4.764;2023-08-06T10:05:08;5.00;;;2.75;;
64387;SDS011;50709;52.648;4.764;2023-08-06T10:07:34;5.40;;;2.67;;
64387;SDS011;50709;52.648;4.764;2023-08-06T10:10:00;4.90;;;2.70;;
64387;SDS011;50709;52.648;4.764;2023-08-06T10:12:28;4.45;;;2.58;;
64387;SDS011;50709;52.648;4.764;2023-08-06T10:14:57;6.60;;;2.70;;
64387;SDS011;50709;52.648;4.764;2023-08-06T10:17:26;3.95;;;2.60;;
64387;SDS011;50709;52.648;4.764;2023-08-06T10:19:52;4.70;;;2.75;;
64387;SDS011;50709;52.648;4.764;2023-08-06T10:22:20;4.90;;;2.72;;
64387;SDS011;50709;52.648;4.764;2023-08-06T10:24:52;4.60;;;2.90;;
64387;SDS011;50709;52.648;4.764;2023-08-06T10:30:20;4.43;;;2.83;;
64387;SDS011;50709;52.648;4.764;2023-08-06T10:35:34;5.80;;;3.10;;
64387;SDS011;50709;52.648;4.764;2023-08-06T10:40:35;4.40;;;2.65;;
64387;SDS011;50709;52.648;4.764;2023-08-06T10:43:05;6.28;;;3.50;;
64387;SDS011;50709;52.648;4.764;2023-08-06T10:45:35;5.70;;;2.58;;
64387;SDS011;50709;52.648;4.764;2023-08-06T10:48:02;4.35;;;2.78;;
64387;SDS011;50709;52.648;4.764;2023-08-06T10:50:28;4.53;;;2.80;;
64387;SDS011;50709;52.648;4.764;2023-08-06T10:52:54;3.80;;;2.95;;
64387;SDS011;50709;52.648;4.764;2023-08-06T10:55:23;3.97;;;2.60;;
64387;SDS011;50709;52.648;4.764;2023-08-06T10:57:51;4.68;;;2.92;;
64387;SDS011;50709;52.648;4.764;2023-08-06T11:00:17;5.05;;;3.22;;
64387;SDS011;50709;52.648;4.764;2023-08-06T11:02:43;5.28;;;2.83;;
64387;SDS011;50709;52.648;4.764;2023-08-06T11:05:09;4.32;;;2.80;;
64387;SDS011;50709;52.648;4.764;2023-08-06T11:07:36;4.30;;;2.72;;
64387;SDS011;50709;52.648;4.764;2023-08-06T11:10:06;4.55;;;2.80;;
64387;SDS011;50709;52.648;4.764;2023-08-06T11:12:33;3.90;;;2.67;;
64387;SDS011;50709;52.648;4.764;2023-08-06T11:15:00;4.38;;;2.60;;
64387;SDS011;50709;52.648;4.764;2023-08-06T11:17:29;6.57;;;3.55;;
64387;SDS011;50709;52.648;4.764;2023-08-06T11:19:56;4.40;;;2.70;;
64387;SDS011;50709;52.648;4.764;2023-08-06T11:22:24;5.15;;;2.80;;
64387;SDS011;50709;52.648;4.764;2023-08-06T11:24:50;5.78;;;2.92;;
64387;SDS011;50709;52.648;4.764;2023-08-06T11:27:16;4.22;;;2.92;;
64387;SDS011;50709;52.648;4.764;2023-08-06T11:29:42;4.95;;;2.97;;
64387;SDS011;50709;52.648;4.764;2023-08-06T11:32:11;4.57;;;2.63;;
64387;SDS011;50709;52.648;4.764;2023-08-06T11:34:37;6.78;;;2.83;;
64387;SDS011;50709;52.648;4.764;2023-08-06T11:37:04;5.75;;;2.97;;
64387;SDS011;50709;52.648;4.764;2023-08-06T11:39:34;4.85;;;2.70;;
64387;SDS011;50709;52.648;4.764;2023-08-06T11:42:00;4.28;;;2.67;;
64387;SDS011;50709;52.648;4.764;2023-08-06T11:44:31;6.15;;;2.63;;
64387;SDS011;50709;52.648;4.764;2023-08-06T11:46:59;6.00;;;2.88;;
64387;SDS011;50709;52.648;4.764;2023-08-06T11:55:02;4.93;;;2.95;;
64387;SDS011;50709;52.648;4.764;2023-08-06T11:57:36;3.85;;;2.30;;
64387;SDS011;50709;52.648;4.764;2023-08-06T12:00:25;4.70;;;2.70;;
64387;SDS011;50709;52.648;4.764;2023-08-06T12:02:51;4.90;;;2.45;;
64387;SDS011;50709;52.648;4.764;2023-08-06T12:05:21;4.15;;;2.85;;
64387;SDS011;50709;52.648;4.764;2023-08-06T12:08:05;5.72;;;2.85;;
64387;SDS011;50709;52.648;4.764;2023-08-06T12:10:31;4.40;;;2.80;;
64387;SDS011;50709;52.648;4.764;2023-08-06T12:12:57;4.53;;;2.78;;
64387;SDS011;50709;52.648;4.764;2023-08-06T12:15:24;3.88;;;2.53;;
64387;SDS011;50709;52.648;4.764;2023-08-06T12:18:10;3.58;;;2.50;;
64387;SDS011;50709;52.648;4.764;2023-08-06T12:20:36;5.15;;;2.70;;
64387;SDS011;50709;52.648;4.764;2023-08-06T12:23:24;4.00;;;2.60;;
64387;SDS011;50709;52.648;4.764;2023-08-06T12:26:09;3.63;;;2.65;;
64387;SDS011;50709;52.648;4.764;2023-08-06T12:28:35;4.22;;;2.70;;
64387;SDS011;50709;52.648;4.764;2023-08-06T12:31:01;4.95;;;2.92;;
64387;SDS011;50709;52.648;4.764;2023-08-06T12:33:27;4.18;;;2.47;;
64387;SDS011;50709;52.648;4.764;2023-08-06T12:35:54;6.07;;;2.85;;
64387;SDS011;50709;52.648;4.764;2023-08-06T12:38:20;4.15;;;2.70;;
64387;SDS011;50709;52.648;4.764;2023-08-06T12:40:45;3.53;;;2.40;;
64387;SDS011;50709;52.648;4.764;2023-08-06T12:43:11;4.55;;;2.67;;
64387;SDS011;50709;52.648;4.764;2023-08-06T12:45:36;5.00;;;2.58;;
64387;SDS011;50709;52.648;4.764;2023-08-06T12:48:02;4.18;;;2.70;;
64387;SDS011;50709;52.648;4.764;2023-08-06T12:50:28;4.40;;;2.58;;
64387;SDS011;50709;52.648;4.764;2023-08-06T12:52:53;4.28;;;2.63;;
64387;SDS011;50709;52.648;4.764;2023-08-06T12:55:22;4.43;;;2.70;;
64387;SDS011;50709;52.648;4.764;2023-08-06T12:57:47;4.30;;;2.60;;
64387;SDS011;50709;52.648;4.764;2023-08-06T13:00:13;5.28;;;2.55;;
64387;SDS011;50709;52.648;4.764;2023-08-06T13:02:39;5.30;;;2.58;;
64387;SDS011;50709;52.648;4.764;2023-08-06T13:05:04;4.68;;;2.60;;
64387;SDS011;50709;52.648;4.764;2023-08-06T13:07:31;4.57;;;2.60;;
64387;SDS011;50709;52.648;4.764;2023-08-06T13:09:58;3.33;;;2.38;;
64387;SDS011;50709;52.648;4.764;2023-08-06T13:12:25;3.97;;;2.60;;
64387;SDS011;50709;52.648;4.764;2023-08-06T13:14:50;3.80;;;2.40;;
64387;SDS011;50709;52.648;4.764;2023-08-06T13:17:17;5.30;;;2.90;;
64387;SDS011;50709;52.648;4.764;2023-08-06T13:19:43;4.85;;;2.60;;
64387;SDS011;50709;52.648;4.764;2023-08-06T13:22:09;5.45;;;2.50;;
64387;SDS011;50709;52.648;4.764;2023-08-06T13:24:35;5.25;;;2.50;;
64387;SDS011;50709;52.648;4.764;2023-08-06T13:27:00;4.18;;;2.30;;
64387;SDS011;50709;52.648;4.764;2023-08-06T13:29:26;4.72;;;2.30;;
64387;SDS011;50709;52.648;4.764;2023-08-06T13:31:52;5.20;;;2.15;;
64387;SDS011;50709;52.648;4.764;2023-08-06T13:34:18;6.10;;;3.40;;
64387;SDS011;50709;52.648;4.764;2023-08-06T13:36:44;4.45;;;2.30;;
64387;SDS011;50709;52.648;4.764;2023-08-06T13:39:10;4.47;;;2.38;;
64387;SDS011;50709;52.648;4.764;2023-08-06T13:41:37;5.13;;;2.28;;
64387;SDS011;50709;52.648;4.764;2023-08-06T13:44:04;9.25;;;2.45;;
64387;SDS011;50709;52.648;4.764;2023-08-06T13:46:30;4.63;;;2.47;;
64387;SDS011;50709;52.648;4.764;2023-08-06T13:48:55;5.22;;;2.30;;
64387;SDS011;50709;52.648;4.764;2023-08-06T13:51:20;3.85;;;1.65;;
64387;SDS011;50709;52.648;4.764;2023-08-06T13:53:46;4.25;;;1.60;;
64387;SDS011;50709;52.648;4.764;2023-08-06T13:56:11;4.00;;;2.10;;
64387;SDS011;50709;52.648;4.764;2023-08-06T13:58:40;4.45;;;2.30;;
64387;SDS011;50709;52.648;4.764;2023-08-06T14:01:05;3.72;;;1.67;;
64387;SDS011;50709;52.648;4.764;2023-08-06T14:03:31;2.55;;;1.48;;
64387;SDS011;50709;52.648;4.764;2023-08-06T14:05:57;5.10;;;1.90;;
64387;SDS011;50709;52.648;4.764;2023-08-06T14:08:23;5.38;;;2.20;;
64387;SDS011;50709;52.648;4.764;2023-08-06T14:10:49;4.63;;;1.80;;
64387;SDS011;50709;52.648;4.764;2023-08-06T14:13:15;2.40;;;1.60;;
64387;SDS011;50709;52.648;4.764;2023-08-06T14:15:40;7.28;;;2.00;;
64387;SDS011;50709;52.648;4.764;2023-08-06T14:18:06;4.28;;;1.80;;
64387;SDS011;50709;52.648;4.764;2023-08-06T14:20:35;2.63;;;1.23;;
64387;SDS011;50709;52.648;4.764;2023-08-06T14:23:01;4.40;;;1.88;;
64387;SDS011;50709;52.648;4.764;2023-08-06T14:25:26;4.72;;;2.08;;
64387;SDS011;50709;52.648;4.764;2023-08-06T14:27:52;3.15;;;1.65;;
64387;SDS011;50709;52.648;4.764;2023-08-06T14:30:19;3.80;;;1.80;;
64387;SDS011;50709;52.648;4.764;2023-08-06T14:32:44;4.40;;;1.90;;
64387;SDS011;50709;52.648;4.764;2023-08-06T14:35:10;3.97;;;1.80;;
64387;SDS011;50709;52.648;4.764;2023-08-06T14:37:57;3.08;;;1.52;;
64387;SDS011;50709;52.648;4.764;2023-08-06T14:40:25;3.28;;;1.38;;
64387;SDS011;50709;52.648;4.764;2023-08-06T14:42:53;2.10;;;1.33;;
64387;SDS011;50709;52.648;4.764;2023-08-06T14:45:19;3.05;;;1.60;;
64387;SDS011;50709;52.648;4.764;2023-08-06T14:47:44;3.13;;;1.58;;
64387;SDS011;50709;52.648;4.764;2023-08-06T14:50:10;1.85;;;1.30;;
64387;SDS011;50709;52.648;4.764;2023-08-06T14:52:35;8.52;;;2.90;;
64387;SDS011;50709;52.648;4.764;2023-08-06T14:55:01;5.75;;;2.10;;
64387;SDS011;50709;52.648;4.764;2023-08-06T14:57:28;5.03;;;1.50;;
64387;SDS011;50709;52.648;4.764;2023-08-06T14:59:54;3.97;;;1.70;;
64387;SDS011;50709;52.648;4.764;2023-08-06T15:02:40;0.95;;;0.70;;
64387;SDS011;50709;52.648;4.764;2023-08-06T15:05:05;3.10;;;1.45;;
64387;SDS011;50709;52.648;4.764;2023-08-06T15:07:51;4.25;;;1.70;;